Hauptseite
METAR-TAF:

METAR-TAF

Flughäfen :

Kbely

Prag, Tschechien

Breite: 50-07-17N, Länge: 14-32-37E, Höhe: 286 m

Beobachtung

Neuester Wetterbericht von vor 49 Minuten, um 01:00 UTC
Wind 5 kt aus Nord
Temperatur -2°C
Luftfeuchtigkeit 63%
Luftdruck 1037 hPa
Sichtweite 10 km oder mehr
keine Wolken unter 1500 m und keine Kumulonimbus oder Gewitterwolken

METAR: LKKB 050100Z 35005KT CAVOK M02/M08 Q1037

Zeit: 02:49 (01:49 UTC)

Prognose

Neuester Wetterbericht von vor 2 Stunden und 49 Minuten, um 23:00 UTC
Gültige Prognose vom 05 um 00 UTC bis 06 um 00 UTC
Wind 5 kt aus West
Sichtweite 10 km oder mehr
keine Wolken unter 1500 m und keine Kumulonimbus oder Gewitterwolken
Übergehend zu
vom 05 um 04 UTC bis 05 um 06 UTC
Wind 2 kt aus unterschiedlichen Richtungen

TAF: LKKB 042300Z 0500/0600 27005KT CAVOK BECMG 0504/0506 VRB02KT

Wetterbeobachtungen und Prognosen von mehr als 4000 Flughäfen (METAR und TAF Bericht).

Die verfügbaren Stationen werden durch gelbe und rote Markierungen auf der Karte dargestellt.

Führen Sie die Maus auf sie, um den Namen der Station zu sehen.

Darauf klicken, um die Beobachtung von Wetterbeobachtungen und Prognosen zu sehen.

Um die Karte zu ändern : klicken Sie auf den grünen Tasten mit einem schwarzen Kreuz Zum Vergrößern, auf den grünen Button mit einem Gedankenstrich zu verkleinern, oder auf die grünen Pfeile für benachbarte Karten.


METAR-TAF: